Terminal Aerodrome Forecast
Issued by NWS

Home | Current Version | Previous Version | Text Only | Print | Product List | Glossary On
Versions: 1 2 3 4 5 6 7 8 9 10 11 12 13 14 15 16 17 18 19 20
000
FTUS42 KGSP 020541
TAFGMU
TAF
KGMU 020541Z 0206/0306 24006KT 3SM BR OVC002
      TEMPO 0206/0210 1 1/2SM BR
     FM021400 28003KT P6SM OVC009
     FM021700 34004KT P6SM BKN025
     FM022000 03004KT P6SM BKN045
     FM030000 05006KT P6SM OVC025=

USA.gov is the U.S. government's official web portal to all federal, state and local government web resources and services.